createdAt,value
2023-05-14T00:00:29.957Z,29.95
2023-05-14T00:02:57.088Z,28.27
2023-05-14T00:05:24.395Z,29.17
2023-05-14T00:07:51.270Z,30.83
2023-05-14T00:10:20.489Z,29.60
2023-05-14T00:12:47.877Z,29.70
2023-05-14T00:15:15.700Z,31.98
2023-05-14T00:17:42.838Z,31.48
2023-05-14T00:20:12.154Z,32.22
2023-05-14T00:22:39.869Z,31.30
2023-05-14T00:25:08.479Z,29.83
2023-05-14T00:27:37.675Z,32.53
2023-05-14T00:30:07.050Z,32.08
2023-05-14T00:32:34.097Z,33.95
2023-05-14T00:35:03.040Z,33.10
2023-05-14T00:37:30.197Z,33.92
2023-05-14T00:39:57.264Z,36.03
2023-05-14T00:42:24.104Z,37.58
2023-05-14T00:44:50.957Z,36.83
2023-05-14T00:47:18.278Z,34.85
2023-05-14T00:49:45.710Z,37.95
2023-05-14T00:52:15.396Z,36.10
2023-05-14T00:54:42.915Z,36.42
2023-05-14T00:57:09.979Z,36.60
2023-05-14T00:59:36.866Z,37.83
2023-05-14T01:02:03.822Z,37.40
2023-05-14T01:04:34.952Z,35.60
2023-05-14T01:07:21.059Z,34.75
2023-05-14T01:10:02.676Z,36.78
2023-05-14T01:12:56.889Z,37.55
2023-05-14T01:15:33.387Z,39.25
2023-05-14T01:18:04.727Z,38.55
2023-05-14T01:20:31.868Z,39.58
2023-05-14T01:22:59.117Z,40.80
2023-05-14T01:25:26.425Z,40.75
2023-05-14T01:27:56.022Z,40.58
2023-05-14T01:30:26.125Z,41.30
2023-05-14T01:32:58.097Z,42.10
2023-05-14T01:35:29.132Z,38.72
2023-05-14T01:37:59.631Z,40.30
2023-05-14T01:40:27.719Z,39.35
2023-05-14T01:42:56.536Z,38.00
2023-05-14T01:45:24.463Z,38.05
2023-05-14T01:47:52.558Z,40.05
2023-05-14T01:50:19.622Z,37.10
2023-05-14T01:52:48.352Z,39.58
2023-05-14T01:55:16.129Z,38.90
2023-05-14T01:57:43.047Z,39.20
2023-05-14T02:00:11.690Z,38.13
2023-05-14T02:02:38.995Z,39.83
2023-05-14T02:05:07.220Z,40.03
2023-05-14T02:07:34.486Z,38.53
2023-05-14T02:10:01.348Z,38.08
2023-05-14T02:12:28.262Z,36.58
2023-05-14T02:14:55.154Z,36.13
2023-05-14T02:17:22.252Z,36.35
2023-05-14T02:19:49.171Z,36.22
2023-05-14T02:22:16.108Z,38.10
2023-05-14T02:24:42.934Z,35.75
2023-05-14T02:27:09.901Z,35.78
2023-05-14T02:29:36.760Z,38.25
2023-05-14T02:32:04.011Z,37.40
2023-05-14T02:34:30.995Z,38.00
2023-05-14T02:36:57.865Z,38.92
2023-05-14T02:39:24.725Z,37.70
2023-05-14T02:41:51.607Z,36.70
2023-05-14T02:44:18.465Z,38.88
2023-05-14T02:46:45.703Z,40.25
2023-05-14T02:49:12.619Z,39.15
2023-05-14T02:51:40.664Z,39.75
2023-05-14T02:54:07.581Z,39.05
2023-05-14T02:56:34.459Z,40.05
2023-05-14T02:59:01.394Z,42.28
2023-05-14T03:01:28.779Z,40.67
2023-05-14T03:03:56.429Z,41.45
2023-05-14T03:06:23.633Z,40.13
2023-05-14T03:08:50.725Z,39.22
2023-05-14T03:11:17.742Z,39.83
2023-05-14T03:13:44.808Z,40.42
2023-05-14T03:16:11.903Z,41.28
2023-05-14T03:18:39.417Z,39.50
2023-05-14T03:21:06.766Z,42.38
2023-05-14T03:23:35.177Z,41.13
2023-05-14T03:26:02.403Z,41.67
2023-05-14T03:28:30.198Z,41.17
2023-05-14T03:30:57.247Z,41.88
2023-05-14T03:33:24.400Z,42.20
2023-05-14T03:35:53.479Z,40.15
2023-05-14T03:38:20.412Z,40.22
2023-05-14T03:40:47.337Z,43.40
2023-05-14T03:43:14.387Z,41.53
2023-05-14T03:45:41.416Z,39.42
2023-05-14T03:48:08.482Z,41.40
2023-05-14T03:50:36.254Z,39.38
2023-05-14T03:53:03.109Z,39.75
2023-05-14T03:55:30.280Z,40.70
2023-05-14T03:57:57.220Z,42.50
2023-05-14T04:00:24.486Z,40.15
2023-05-14T04:02:51.811Z,38.72
2023-05-14T04:05:18.762Z,39.08
2023-05-14T04:07:46.254Z,39.40
2023-05-14T04:10:14.176Z,39.83
2023-05-14T04:12:41.974Z,39.40
2023-05-14T04:15:09.457Z,39.55
2023-05-14T04:17:36.286Z,40.15
2023-05-14T04:20:03.430Z,40.08
2023-05-14T04:22:30.385Z,38.95
2023-05-14T04:24:57.333Z,37.97
2023-05-14T04:27:25.143Z,37.10
2023-05-14T04:29:51.935Z,36.67
2023-05-14T04:32:18.974Z,37.90
2023-05-14T04:34:47.411Z,38.65
2023-05-14T04:37:14.449Z,38.30
2023-05-14T04:39:41.502Z,39.40
2023-05-14T04:42:08.618Z,38.40
2023-05-14T04:44:36.758Z,38.42
2023-05-14T04:47:04.398Z,38.00
2023-05-14T04:49:31.411Z,37.72
2023-05-14T04:51:58.517Z,38.92
2023-05-14T04:54:25.637Z,39.08
2023-05-14T04:56:54.182Z,39.15
2023-05-14T04:59:21.390Z,39.15
2023-05-14T05:01:48.317Z,39.63
2023-05-14T05:04:15.531Z,39.28
2023-05-14T05:06:42.461Z,39.05
2023-05-14T05:09:09.950Z,38.53
2023-05-14T05:11:37.914Z,37.08
2023-05-14T05:14:04.830Z,36.50
2023-05-14T05:16:31.725Z,37.38
2023-05-14T05:18:58.694Z,37.20
2023-05-14T05:21:25.723Z,36.03
2023-05-14T05:23:52.632Z,34.90
2023-05-14T05:26:21.310Z,35.53
2023-05-14T05:28:48.487Z,36.15
2023-05-14T05:31:18.958Z,35.53
2023-05-14T05:33:46.868Z,35.13
2023-05-14T05:36:13.855Z,33.35
2023-05-14T05:38:40.909Z,33.55
2023-05-14T05:41:08.956Z,35.63
2023-05-14T05:43:35.805Z,34.83
2023-05-14T05:46:02.647Z,34.63
2023-05-14T05:48:29.525Z,34.20
2023-05-14T05:50:56.468Z,34.70
2023-05-14T05:53:23.451Z,34.10
2023-05-14T05:55:51.744Z,33.25
2023-05-14T05:58:19.799Z,34.15
2023-05-14T06:00:47.311Z,33.78
2023-05-14T06:03:14.457Z,33.42
2023-05-14T06:05:42.659Z,34.13
2023-05-14T06:08:09.948Z,31.73
2023-05-14T06:10:38.862Z,33.95
2023-05-14T06:13:06.948Z,33.35
2023-05-14T06:15:33.835Z,33.25
2023-05-14T06:18:01.673Z,32.95
2023-05-14T06:20:28.745Z,32.97
2023-05-14T06:22:55.978Z,32.88
2023-05-14T06:25:23.272Z,32.90
2023-05-14T06:27:50.428Z,33.10
2023-05-14T06:30:17.400Z,34.60
2023-05-14T06:32:45.076Z,34.95
2023-05-14T06:35:12.021Z,33.83
2023-05-14T06:37:38.871Z,33.67
2023-05-14T06:40:06.695Z,36.45
2023-05-14T06:42:33.669Z,36.40
2023-05-14T06:45:00.831Z,35.97
2023-05-14T06:47:28.621Z,37.25
2023-05-14T06:49:56.662Z,37.20
2023-05-14T06:52:23.637Z,36.67
2023-05-14T06:54:50.769Z,36.58
2023-05-14T06:57:17.610Z,34.97
2023-05-14T06:59:44.473Z,33.35
2023-05-14T07:02:12.308Z,34.30
2023-05-14T07:04:40.064Z,35.63
2023-05-14T07:07:07.194Z,35.88
2023-05-14T07:09:37.255Z,34.38
2023-05-14T07:12:05.031Z,34.72
2023-05-14T07:14:31.996Z,32.85
2023-05-14T07:16:59.071Z,34.00
2023-05-14T07:19:28.771Z,33.83
2023-05-14T07:21:57.405Z,34.55
2023-05-14T07:24:24.524Z,33.17
2023-05-14T07:26:51.549Z,33.20
2023-05-14T07:29:18.444Z,32.42
2023-05-14T07:31:45.421Z,31.70
2023-05-14T07:34:12.956Z,34.42
2023-05-14T07:36:40.081Z,32.75
2023-05-14T07:39:10.380Z,33.08
2023-05-14T07:41:37.792Z,32.05
2023-05-14T07:44:05.243Z,31.33
2023-05-14T07:46:32.251Z,31.88
2023-05-14T07:48:59.298Z,32.13
2023-05-14T07:51:28.426Z,31.02
2023-05-14T07:53:56.169Z,30.92
2023-05-14T07:56:23.349Z,30.35
2023-05-14T07:58:51.520Z,31.40
2023-05-14T08:01:18.572Z,31.55
2023-05-14T08:03:46.628Z,31.23
2023-05-14T08:06:16.655Z,30.63
2023-05-14T08:08:43.689Z,31.42
2023-05-14T08:11:11.055Z,28.92
2023-05-14T08:13:37.982Z,30.55
2023-05-14T08:16:06.332Z,28.95
2023-05-14T08:18:33.479Z,29.83
2023-05-14T08:21:02.207Z,29.25
2023-05-14T08:23:30.374Z,28.15
2023-05-14T08:25:57.229Z,28.67
2023-05-14T08:28:24.228Z,29.10
2023-05-14T08:30:51.599Z,26.73
2023-05-14T08:33:18.658Z,27.13
2023-05-14T08:35:45.529Z,27.58
2023-05-14T08:38:12.445Z,26.25
2023-05-14T08:40:39.537Z,24.35
2023-05-14T08:43:07.311Z,24.85
2023-05-14T08:45:36.444Z,23.90
2023-05-14T08:48:08.873Z,24.20
2023-05-14T08:50:36.224Z,24.08
2023-05-14T08:53:04.713Z,24.60
2023-05-14T08:55:33.527Z,23.15
2023-05-14T08:58:01.369Z,21.55
2023-05-14T09:00:28.560Z,21.98
2023-05-14T09:02:55.929Z,21.42
2023-05-14T09:05:24.350Z,21.67
2023-05-14T09:07:52.449Z,21.48
2023-05-14T09:10:19.529Z,21.10
2023-05-14T09:12:46.521Z,20.63
2023-05-14T09:15:13.672Z,21.50
2023-05-14T09:17:40.764Z,20.20
2023-05-14T09:20:09.446Z,19.73
2023-05-14T09:22:36.640Z,19.42
2023-05-14T09:25:12.399Z,18.65
2023-05-14T09:27:39.710Z,18.27
2023-05-14T09:30:11.747Z,19.15
2023-05-14T09:32:45.627Z,17.85
2023-05-14T09:35:19.836Z,17.02
2023-05-14T09:37:48.814Z,16.65
2023-05-14T09:40:17.346Z,17.05
2023-05-14T09:42:44.269Z,15.18
2023-05-14T09:45:12.187Z,15.80
2023-05-14T09:47:39.869Z,16.55
2023-05-14T09:50:08.394Z,16.92
2023-05-14T09:52:35.902Z,15.57
2023-05-14T09:55:02.926Z,15.38
2023-05-14T09:57:29.971Z,15.27
2023-05-14T09:59:56.797Z,14.50
2023-05-14T10:02:36.895Z,14.80
2023-05-14T10:05:06.539Z,14.35
2023-05-14T10:07:44.857Z,13.18
2023-05-14T10:10:17.192Z,13.13
2023-05-14T10:12:48.738Z,13.85
2023-05-14T10:15:24.300Z,13.93
2023-05-14T10:17:59.627Z,13.85
2023-05-14T10:20:31.764Z,13.63
2023-05-14T10:22:59.116Z,12.95
2023-05-14T10:25:26.951Z,11.73
2023-05-14T10:27:54.400Z,13.00
2023-05-14T10:30:25.304Z,12.63
2023-05-14T10:33:13.814Z,12.15
2023-05-14T10:36:04.201Z,12.05
2023-05-14T10:38:34.834Z,12.65
2023-05-14T10:41:07.909Z,11.57
2023-05-14T10:43:39.807Z,14.18
2023-05-14T10:46:08.111Z,14.23
2023-05-14T10:48:36.782Z,13.55
2023-05-14T10:51:03.964Z,14.02
2023-05-14T10:53:35.093Z,14.57
2023-05-14T10:56:08.108Z,13.48
2023-05-14T10:58:45.882Z,13.05
2023-05-14T11:01:13.917Z,13.85
2023-05-14T11:03:43.353Z,12.43
2023-05-14T11:06:12.384Z,12.70
2023-05-14T11:08:39.965Z,11.13
2023-05-14T11:11:08.577Z,11.60
2023-05-14T11:13:35.970Z,12.43
2023-05-14T11:16:15.166Z,12.95
2023-05-14T11:19:00.799Z,12.85
2023-05-14T11:21:27.904Z,13.13
2023-05-14T11:23:55.860Z,14.27
2023-05-14T11:26:24.165Z,12.38
2023-05-14T11:28:51.233Z,11.20
2023-05-14T11:31:18.283Z,10.90
2023-05-14T11:33:45.366Z,12.20
2023-05-14T11:36:12.656Z,11.70
2023-05-14T11:38:52.227Z,11.35
2023-05-14T11:41:21.597Z,12.50
2023-05-14T11:43:48.876Z,12.00
2023-05-14T11:46:19.060Z,12.70
2023-05-14T11:48:46.184Z,13.43
2023-05-14T11:51:13.224Z,13.45
2023-05-14T11:53:40.166Z,12.25
2023-05-14T11:56:09.655Z,12.18
2023-05-14T11:58:37.047Z,12.10
2023-05-14T12:01:04.187Z,13.38
2023-05-14T12:03:32.847Z,12.65
2023-05-14T12:06:02.331Z,13.20
2023-05-14T12:08:31.604Z,13.52
2023-05-14T12:11:03.536Z,14.07
2023-05-14T12:13:31.748Z,14.07
2023-05-14T12:16:02.229Z,14.27
2023-05-14T12:18:31.447Z,13.93
2023-05-14T12:21:08.329Z,14.60
2023-05-14T12:23:35.679Z,13.32
2023-05-14T12:26:06.079Z,12.55
2023-05-14T12:28:36.014Z,11.93
2023-05-14T12:31:04.821Z,13.82
2023-05-14T12:33:31.763Z,13.18
2023-05-14T12:36:10.032Z,13.13
2023-05-14T12:38:47.164Z,14.00
2023-05-14T12:41:14.164Z,12.85
2023-05-14T12:43:44.745Z,12.57
2023-05-14T12:46:11.754Z,11.95
2023-05-14T12:48:40.145Z,12.18
2023-05-14T12:51:07.233Z,13.15
2023-05-14T12:53:35.370Z,12.30
2023-05-14T12:56:02.614Z,13.18
2023-05-14T12:58:29.563Z,12.75
2023-05-14T13:00:56.516Z,11.40
2023-05-14T13:03:24.508Z,11.48
2023-05-14T13:05:53.372Z,10.30
2023-05-14T13:08:25.334Z,10.65
2023-05-14T13:10:53.507Z,9.68
2023-05-14T13:13:20.642Z,9.93
2023-05-14T13:15:48.012Z,9.18
2023-05-14T13:18:15.801Z,10.88
2023-05-14T13:20:43.454Z,10.65
2023-05-14T13:23:10.902Z,10.85
2023-05-14T13:25:38.518Z,10.35
2023-05-14T13:28:05.773Z,10.05
2023-05-14T13:30:32.877Z,8.85
2023-05-14T13:33:00.986Z,8.48
2023-05-14T13:35:28.099Z,9.52
2023-05-14T13:37:55.026Z,9.18
2023-05-14T13:40:22.757Z,9.00
2023-05-14T13:42:49.674Z,7.47
2023-05-14T13:45:16.582Z,7.93
2023-05-14T13:47:44.590Z,8.45
2023-05-14T13:50:11.844Z,7.82
2023-05-14T13:52:39.383Z,8.45
2023-05-14T13:55:07.105Z,7.57
2023-05-14T13:57:34.009Z,7.93
2023-05-14T14:00:00.911Z,9.90
2023-05-14T14:02:27.859Z,10.45
2023-05-14T14:04:56.642Z,9.13
2023-05-14T14:07:23.760Z,9.43
2023-05-14T14:09:50.816Z,8.48
2023-05-14T14:12:17.781Z,10.07
2023-05-14T14:14:44.621Z,9.45
2023-05-14T14:17:11.763Z,9.32
2023-05-14T14:19:38.836Z,9.45
2023-05-14T14:22:06.010Z,9.77
2023-05-14T14:24:33.810Z,9.57
2023-05-14T14:27:02.304Z,9.05
2023-05-14T14:29:31.205Z,8.77
2023-05-14T14:31:58.446Z,8.35
2023-05-14T14:34:25.570Z,7.60
2023-05-14T14:36:52.514Z,8.77
2023-05-14T14:39:19.511Z,9.38
2023-05-14T14:41:47.715Z,9.55
2023-05-14T14:44:14.594Z,10.52
2023-05-14T14:46:43.049Z,10.65
2023-05-14T14:49:10.080Z,11.18
2023-05-14T14:51:37.168Z,10.80
2023-05-14T14:54:05.143Z,11.27
2023-05-14T14:56:32.366Z,11.13
2023-05-14T14:58:59.426Z,10.52
2023-05-14T15:01:26.407Z,10.57
2023-05-14T15:03:54.328Z,10.82
2023-05-14T15:06:21.500Z,10.43
2023-05-14T15:08:48.689Z,10.40
2023-05-14T15:11:15.661Z,10.27
2023-05-14T15:13:43.193Z,10.93
2023-05-14T15:16:10.241Z,10.00
2023-05-14T15:18:37.405Z,10.93
2023-05-14T15:21:04.597Z,11.32
2023-05-14T15:23:31.802Z,10.35
2023-05-14T15:25:58.662Z,9.38
2023-05-14T15:28:25.626Z,9.98
2023-05-14T15:30:52.950Z,9.45
2023-05-14T15:33:20.294Z,9.18
2023-05-14T15:35:47.316Z,10.10
2023-05-14T15:38:14.368Z,9.15
2023-05-14T15:40:41.624Z,9.27
2023-05-14T15:43:08.761Z,9.48
2023-05-14T15:45:36.439Z,9.68
2023-05-14T15:48:03.665Z,10.43
2023-05-14T15:50:30.792Z,11.88
2023-05-14T15:52:57.769Z,11.95
2023-05-14T15:55:24.684Z,11.85
2023-05-14T15:57:51.726Z,12.32
2023-05-14T16:00:19.673Z,13.82
2023-05-14T16:02:46.771Z,12.52
2023-05-14T16:05:16.311Z,11.90
2023-05-14T16:07:43.543Z,12.52
2023-05-14T16:10:10.791Z,13.25
2023-05-14T16:12:37.706Z,12.50
2023-05-14T16:15:10.066Z,11.88
2023-05-14T16:17:37.019Z,11.35
2023-05-14T16:20:07.100Z,11.23
2023-05-14T16:22:35.340Z,12.43
2023-05-14T16:25:03.558Z,10.93
2023-05-14T16:27:31.442Z,11.57
2023-05-14T16:29:58.352Z,12.00
2023-05-14T16:32:25.505Z,12.88
2023-05-14T16:34:52.506Z,12.52
2023-05-14T16:37:21.219Z,11.73
2023-05-14T16:39:49.052Z,11.68
2023-05-14T16:42:16.696Z,12.02
2023-05-14T16:44:44.381Z,11.85
2023-05-14T16:47:11.335Z,11.07
2023-05-14T16:49:38.224Z,11.55
2023-05-14T16:52:05.935Z,11.45
2023-05-14T16:54:32.965Z,12.07
2023-05-14T16:57:00.003Z,14.60
2023-05-14T16:59:27.035Z,12.32
2023-05-14T17:01:54.151Z,12.85
2023-05-14T17:04:22.852Z,12.80
2023-05-14T17:06:49.826Z,14.63
2023-05-14T17:09:17.754Z,13.00
2023-05-14T17:11:44.957Z,14.43
2023-05-14T17:14:11.948Z,15.32
2023-05-14T17:16:40.570Z,14.45
2023-05-14T17:19:07.751Z,14.27
2023-05-14T17:21:34.762Z,14.32
2023-05-14T17:24:01.578Z,14.75
2023-05-14T17:26:28.646Z,14.90
2023-05-14T17:28:55.908Z,14.80
2023-05-14T17:31:23.314Z,14.35
2023-05-14T17:33:50.445Z,14.43
2023-05-14T17:36:17.362Z,14.25
2023-05-14T17:38:44.405Z,14.23
2023-05-14T17:41:11.327Z,14.63
2023-05-14T17:43:38.464Z,13.95
2023-05-14T17:46:05.598Z,14.13
2023-05-14T17:48:32.748Z,13.77
2023-05-14T17:51:00.535Z,13.50
2023-05-14T17:53:27.365Z,14.30
2023-05-14T17:55:54.476Z,16.77
2023-05-14T17:58:21.603Z,16.13
2023-05-14T18:00:48.587Z,15.02
2023-05-14T18:03:15.561Z,15.27
2023-05-14T18:05:42.662Z,15.02
2023-05-14T18:08:10.053Z,14.77
2023-05-14T18:10:37.672Z,14.88
2023-05-14T18:13:04.732Z,16.02
2023-05-14T18:15:31.742Z,14.93
2023-05-14T18:17:59.163Z,14.80
2023-05-14T18:20:26.257Z,14.63
2023-05-14T18:22:53.103Z,15.30
2023-05-14T18:25:20.244Z,14.70
2023-05-14T18:27:47.318Z,13.80
2023-05-14T18:30:15.660Z,14.00
2023-05-14T18:32:44.479Z,12.63
2023-05-14T18:35:12.864Z,13.32
2023-05-14T18:37:40.215Z,13.52
2023-05-14T18:40:08.029Z,14.18
2023-05-14T18:42:35.450Z,13.60
2023-05-14T18:45:02.622Z,13.48
2023-05-14T18:47:29.885Z,11.80
2023-05-14T18:49:59.351Z,12.43
2023-05-14T18:52:26.852Z,13.13
2023-05-14T18:54:54.877Z,12.10
2023-05-14T18:57:22.581Z,12.20
2023-05-14T18:59:49.633Z,12.35
2023-05-14T19:02:16.831Z,13.00
2023-05-14T19:04:52.441Z,14.68
2023-05-14T19:07:22.829Z,15.05
2023-05-14T19:09:49.853Z,15.88
2023-05-14T19:12:16.745Z,15.70
2023-05-14T19:14:43.690Z,14.38
2023-05-14T19:17:11.784Z,14.40
2023-05-14T19:19:39.511Z,14.40
2023-05-14T19:22:07.019Z,14.70
2023-05-14T19:24:34.236Z,16.70
2023-05-14T19:27:01.232Z,16.33
2023-05-14T19:29:28.200Z,15.30
2023-05-14T19:31:55.169Z,16.25
2023-05-14T19:34:22.070Z,15.68
2023-05-14T19:36:49.075Z,15.48
2023-05-14T19:39:17.510Z,15.50
2023-05-14T19:41:44.463Z,15.30
2023-05-14T19:44:11.401Z,15.57
2023-05-14T19:46:38.394Z,16.10
2023-05-14T19:49:05.246Z,14.48
2023-05-14T19:51:32.203Z,15.35
2023-05-14T19:53:59.831Z,14.88
2023-05-14T19:56:27.399Z,14.02
2023-05-14T19:58:54.715Z,15.52
2023-05-14T20:01:22.181Z,15.40
2023-05-14T20:03:50.808Z,15.43
2023-05-14T20:06:18.495Z,16.10
2023-05-14T20:08:45.683Z,16.27
2023-05-14T20:11:12.768Z,16.98
2023-05-14T20:13:39.812Z,18.40
2023-05-14T20:16:07.108Z,17.90
2023-05-14T20:18:34.287Z,19.35
2023-05-14T20:21:01.269Z,19.67
2023-05-14T20:23:28.413Z,23.85
2023-05-14T20:25:55.729Z,26.17
2023-05-14T20:28:22.738Z,24.13
2023-05-14T20:30:49.842Z,20.75
2023-05-14T20:33:17.001Z,23.20
2023-05-14T20:35:44.252Z,26.75
2023-05-14T20:38:14.733Z,23.90
2023-05-14T20:40:41.586Z,21.98
2023-05-14T20:43:08.547Z,24.30
2023-05-14T20:45:35.968Z,24.10
2023-05-14T20:48:06.216Z,23.63
2023-05-14T20:50:33.166Z,23.77
2023-05-14T20:53:00.058Z,23.20
2023-05-14T20:55:27.383Z,23.05
2023-05-14T20:57:54.414Z,22.38
2023-05-14T21:00:21.497Z,23.27
2023-05-14T21:02:49.209Z,22.23
2023-05-14T21:05:18.516Z,21.98
2023-05-14T21:07:45.644Z,21.40
2023-05-14T21:10:12.665Z,21.83
2023-05-14T21:12:39.758Z,20.92
2023-05-14T21:15:07.492Z,22.45
2023-05-14T21:17:34.586Z,21.98
2023-05-14T21:20:01.596Z,22.75
2023-05-14T21:22:28.597Z,23.65
2023-05-14T21:24:56.338Z,23.92
2023-05-14T21:27:23.345Z,23.55
2023-05-14T21:29:50.397Z,26.10
2023-05-14T21:32:17.994Z,23.42
2023-05-14T21:34:44.934Z,24.45
2023-05-14T21:37:12.097Z,24.38
2023-05-14T21:39:39.146Z,24.13
2023-05-14T21:42:06.354Z,25.20
2023-05-14T21:44:33.230Z,24.73
2023-05-14T21:47:00.233Z,24.45
2023-05-14T21:49:27.117Z,26.55
2023-05-14T21:51:54.855Z,26.80
2023-05-14T21:54:21.997Z,27.20
2023-05-14T21:56:48.963Z,28.00
2023-05-14T21:59:15.876Z,28.42
2023-05-14T22:04:14.501Z,27.48
2023-05-14T22:06:43.623Z,27.85
2023-05-14T22:09:11.507Z,28.35
2023-05-14T22:11:38.479Z,28.45
2023-05-14T22:14:05.394Z,27.75
2023-05-14T22:16:33.158Z,28.65
2023-05-14T22:19:00.285Z,28.65
2023-05-14T22:21:27.238Z,28.80
2023-05-14T22:23:54.283Z,28.13
2023-05-14T22:26:24.036Z,27.17
2023-05-14T22:28:51.794Z,28.70
2023-05-14T22:31:18.664Z,28.30
2023-05-14T22:33:45.822Z,25.08
2023-05-14T22:36:12.835Z,26.85
2023-05-14T22:38:41.316Z,26.77
2023-05-14T22:41:08.174Z,27.02
2023-05-14T22:43:35.126Z,26.92
2023-05-14T22:46:02.008Z,28.27
2023-05-14T22:48:28.970Z,30.05
2023-05-14T22:50:55.918Z,29.98
2023-05-14T22:53:24.342Z,28.40
2023-05-14T22:55:52.078Z,28.65
2023-05-14T22:58:19.142Z,26.60
2023-05-14T23:00:46.494Z,27.50
2023-05-14T23:03:13.612Z,27.90
2023-05-14T23:05:40.663Z,29.17
2023-05-14T23:08:07.587Z,28.65
2023-05-14T23:10:35.588Z,27.52
2023-05-14T23:13:03.602Z,27.27
2023-05-14T23:15:30.607Z,28.52
2023-05-14T23:17:57.703Z,27.55
2023-05-14T23:20:24.713Z,27.20
2023-05-14T23:22:51.651Z,27.63
2023-05-14T23:25:18.828Z,28.45
2023-05-14T23:27:46.012Z,26.55
2023-05-14T23:30:13.185Z,27.38
2023-05-14T23:32:40.065Z,27.65
2023-05-14T23:35:07.537Z,25.48
2023-05-14T23:37:35.832Z,27.77
2023-05-14T23:40:02.749Z,26.77
2023-05-14T23:42:29.948Z,26.30
2023-05-14T23:44:56.760Z,27.42
2023-05-14T23:47:23.617Z,28.40
2023-05-14T23:49:50.618Z,27.73
2023-05-14T23:52:17.517Z,28.98
2023-05-14T23:54:44.297Z,28.05
2023-05-14T23:57:14.244Z,27.98
2023-05-14T23:59:41.645Z,28.02
